createdAt,value
2018-11-10T00:00:21.404Z,42.47
2018-11-10T00:02:50.075Z,36.77
2018-11-10T00:05:19.189Z,39.40
2018-11-10T00:07:47.549Z,39.50
2018-11-10T00:10:16.274Z,39.30
2018-11-10T00:12:44.774Z,38.20
2018-11-10T00:15:13.558Z,43.17
2018-11-10T00:17:41.638Z,39.37
2018-11-10T00:20:10.254Z,43.07
2018-11-10T00:22:39.515Z,36.50
2018-11-10T00:25:09.740Z,50.47
2018-11-10T00:27:37.953Z,40.37
2018-11-10T00:30:08.557Z,42.53
2018-11-10T00:32:36.948Z,38.70
2018-11-10T00:35:05.343Z,42.30
2018-11-10T00:37:33.564Z,42.17
2018-11-10T00:40:01.785Z,46.80
2018-11-10T00:42:30.090Z,41.53
2018-11-10T00:44:58.292Z,39.87
2018-11-10T00:47:26.440Z,42.50
2018-11-10T00:49:54.797Z,39.40
2018-11-10T00:52:22.987Z,43.43
2018-11-10T00:54:51.111Z,38.20
2018-11-10T00:57:19.241Z,40.63
2018-11-10T00:59:47.348Z,46.37
2018-11-10T01:02:15.408Z,45.27
2018-11-10T01:04:43.508Z,37.23
2018-11-10T01:07:11.676Z,42.73
2018-11-10T01:09:40.098Z,39.17
2018-11-10T01:12:13.178Z,37.57
2018-11-10T01:14:41.291Z,46.70
2018-11-10T01:17:09.522Z,40.93
2018-11-10T01:19:37.763Z,41.77
2018-11-10T01:22:06.556Z,35.53
2018-11-10T01:24:34.612Z,41.23
2018-11-10T01:27:02.773Z,39.50
2018-11-10T01:29:31.475Z,40.27
2018-11-10T01:31:59.608Z,42.27
2018-11-10T01:34:27.700Z,35.57
2018-11-10T01:36:55.786Z,39.17
2018-11-10T01:39:23.844Z,38.67
2018-11-10T01:41:52.120Z,39.20
2018-11-10T01:44:20.211Z,35.50
2018-11-10T01:46:48.331Z,36.77
2018-11-10T01:49:16.427Z,36.10
2018-11-10T01:51:44.490Z,37.60
2018-11-10T01:54:12.549Z,40.03
2018-11-10T01:56:40.664Z,36.17
2018-11-10T01:59:08.803Z,37.93
2018-11-10T02:01:36.864Z,38.07
2018-11-10T02:04:05.358Z,40.20
2018-11-10T02:06:33.449Z,45.43
2018-11-10T02:09:01.516Z,43.30
2018-11-10T02:11:29.541Z,45.60
2018-11-10T02:13:57.719Z,43.07
2018-11-10T02:16:25.841Z,43.07
2018-11-10T02:18:53.922Z,42.17
2018-11-10T02:21:22.108Z,39.40
2018-11-10T02:23:51.244Z,41.03
2018-11-10T02:26:19.408Z,38.00
2018-11-10T02:28:47.500Z,41.63
2018-11-10T02:31:15.588Z,39.43
2018-11-10T02:33:43.725Z,37.87
2018-11-10T02:36:11.810Z,37.20
2018-11-10T02:38:39.900Z,40.83
2018-11-10T02:41:08.124Z,43.60
2018-11-10T02:43:36.149Z,44.90
2018-11-10T02:46:04.251Z,36.13
2018-11-10T02:48:32.302Z,40.30
2018-11-10T02:51:00.332Z,41.80
2018-11-10T02:53:28.501Z,38.90
2018-11-10T02:55:56.582Z,42.67
2018-11-10T02:58:24.704Z,38.77
2018-11-10T03:00:52.774Z,42.83
2018-11-10T03:03:20.791Z,40.17
2018-11-10T03:05:48.927Z,42.43
2018-11-10T03:08:17.061Z,40.13
2018-11-10T03:10:45.154Z,41.03
2018-11-10T03:13:13.260Z,42.37
2018-11-10T03:15:41.319Z,43.20
2018-11-10T03:18:09.412Z,42.03
2018-11-10T03:20:37.508Z,44.60
2018-11-10T03:23:05.780Z,41.57
2018-11-10T03:25:34.015Z,35.13
2018-11-10T03:28:02.175Z,41.33
2018-11-10T03:30:30.329Z,41.00
2018-11-10T03:32:58.451Z,39.27
2018-11-10T03:35:26.509Z,42.50
2018-11-10T03:37:54.636Z,43.63
2018-11-10T03:40:22.693Z,44.00
2018-11-10T03:42:50.875Z,46.53
2018-11-10T03:45:18.919Z,44.70
2018-11-10T03:47:47.009Z,41.50
2018-11-10T03:50:15.073Z,44.83
2018-11-10T03:52:43.251Z,38.87
2018-11-10T03:55:11.278Z,44.17
2018-11-10T03:57:39.397Z,48.53
2018-11-10T04:00:14.655Z,44.10
2018-11-10T04:02:43.789Z,48.90
2018-11-10T04:05:12.498Z,43.37
2018-11-10T04:07:43.254Z,44.73
2018-11-10T04:10:12.065Z,46.77
2018-11-10T04:12:40.185Z,44.07
2018-11-10T04:15:08.354Z,46.83
2018-11-10T04:17:36.667Z,46.27
2018-11-10T04:20:06.548Z,44.77
2018-11-10T04:22:35.692Z,44.73
2018-11-10T04:25:05.337Z,48.67
2018-11-10T04:27:33.757Z,40.13
2018-11-10T04:30:02.755Z,52.23
2018-11-10T04:32:30.943Z,45.40
2018-11-10T04:34:59.013Z,41.80
2018-11-10T04:37:27.150Z,42.93
2018-11-10T04:39:55.671Z,47.63
2018-11-10T04:42:23.728Z,44.43
2018-11-10T04:44:51.798Z,45.03
2018-11-10T04:47:19.888Z,41.77
2018-11-10T04:49:47.957Z,54.03
2018-11-10T04:52:16.011Z,49.27
2018-11-10T04:54:44.092Z,50.80
2018-11-10T04:57:12.128Z,48.53
2018-11-10T04:59:40.176Z,45.40
2018-11-10T05:02:08.258Z,49.00
2018-11-10T05:04:36.363Z,48.80
2018-11-10T05:07:04.714Z,46.80
2018-11-10T05:09:32.878Z,54.97
2018-11-10T05:12:00.948Z,48.90
2018-11-10T05:14:29.028Z,50.73
2018-11-10T05:16:57.156Z,51.80
2018-11-10T05:19:25.532Z,54.73
2018-11-10T05:21:54.332Z,52.57
2018-11-10T05:24:22.459Z,49.53
2018-11-10T05:26:50.529Z,57.20
2018-11-10T05:29:18.659Z,54.80
2018-11-10T05:31:46.694Z,55.40
2018-11-10T05:34:14.974Z,55.97
2018-11-10T05:36:43.055Z,59.50
2018-11-10T05:39:11.207Z,57.70
2018-11-10T05:41:39.465Z,57.63
2018-11-10T05:44:07.506Z,53.43
2018-11-10T05:46:35.646Z,52.60
2018-11-10T05:49:03.785Z,57.93
2018-11-10T05:51:31.962Z,60.60
2018-11-10T05:54:00.017Z,57.20
2018-11-10T05:56:28.090Z,53.13
2018-11-10T05:58:56.191Z,58.37
2018-11-10T06:01:24.250Z,59.93
2018-11-10T06:03:52.345Z,54.10
2018-11-10T06:06:20.492Z,53.70
2018-11-10T06:08:48.579Z,57.37
2018-11-10T06:11:16.694Z,55.03
2018-11-10T06:13:44.833Z,68.73
2018-11-10T06:16:12.965Z,72.00
2018-11-10T06:18:41.118Z,66.00
2018-11-10T06:21:09.268Z,65.00
2018-11-10T06:23:37.389Z,71.90
2018-11-10T06:26:05.700Z,70.03
2018-11-10T06:28:33.766Z,74.30
2018-11-10T06:31:02.008Z,71.50
2018-11-10T06:33:30.153Z,70.37
2018-11-10T06:35:58.393Z,68.50
2018-11-10T06:38:26.554Z,71.63
2018-11-10T06:40:54.662Z,71.63
2018-11-10T06:43:22.855Z,69.80
2018-11-10T06:45:51.009Z,76.97
2018-11-10T06:48:19.179Z,68.60
2018-11-10T06:50:47.356Z,69.60
2018-11-10T06:53:15.482Z,63.43
2018-11-10T06:55:43.570Z,76.33
2018-11-10T06:58:11.661Z,69.83
2018-11-10T07:00:39.744Z,67.90
2018-11-10T07:03:07.894Z,78.27
2018-11-10T07:05:36.042Z,72.57
2018-11-10T07:08:04.209Z,69.27
2018-11-10T07:10:32.381Z,79.27
2018-11-10T07:13:00.513Z,75.87
2018-11-10T07:15:29.628Z,70.00
2018-11-10T07:17:57.841Z,67.50
2018-11-10T07:20:25.905Z,75.67
2018-11-10T07:22:54.000Z,79.00
2018-11-10T07:25:22.246Z,70.93
2018-11-10T07:27:50.430Z,67.93
2018-11-10T07:30:18.709Z,69.67
2018-11-10T07:32:46.882Z,67.97
2018-11-10T07:35:15.057Z,70.07
2018-11-10T07:37:43.172Z,77.47
2018-11-10T07:40:12.229Z,74.27
2018-11-10T07:42:40.472Z,71.53
2018-11-10T07:45:10.960Z,66.50
2018-11-10T07:47:39.148Z,61.83
2018-11-10T07:50:08.109Z,68.37
2018-11-10T07:52:36.204Z,72.57
2018-11-10T07:55:08.035Z,72.03
2018-11-10T07:57:36.131Z,64.40
2018-11-10T08:00:07.375Z,60.77
2018-11-10T08:02:35.500Z,74.27
2018-11-10T08:05:03.754Z,65.07
2018-11-10T08:07:31.877Z,62.50
2018-11-10T08:10:00.146Z,52.53
2018-11-10T08:12:28.309Z,58.23
2018-11-10T08:14:56.517Z,49.73
2018-11-10T08:17:24.705Z,55.90
2018-11-10T08:19:52.851Z,54.93
2018-11-10T08:22:21.001Z,49.47
2018-11-10T08:24:49.317Z,51.07
2018-11-10T08:27:17.392Z,47.00
2018-11-10T08:29:45.538Z,48.70
2018-11-10T08:32:13.824Z,50.60
2018-11-10T08:34:41.957Z,44.03
2018-11-10T08:37:10.060Z,52.43
2018-11-10T08:39:38.283Z,43.10
2018-11-10T08:42:06.510Z,46.73
2018-11-10T08:44:34.728Z,47.67
2018-11-10T08:47:03.226Z,51.20
2018-11-10T08:49:31.428Z,43.37
2018-11-10T08:51:59.776Z,41.90
2018-11-10T08:54:27.900Z,52.67
2018-11-10T08:56:56.183Z,44.73
2018-11-10T08:59:24.334Z,47.20
2018-11-10T09:01:52.610Z,47.57
2018-11-10T09:04:20.765Z,43.60
2018-11-10T09:06:48.890Z,40.07
2018-11-10T09:09:17.123Z,38.57
2018-11-10T09:11:45.272Z,41.03
2018-11-10T09:14:13.376Z,43.57
2018-11-10T09:16:41.499Z,39.00
2018-11-10T09:19:09.597Z,45.30
2018-11-10T09:21:37.862Z,45.57
2018-11-10T09:24:06.760Z,40.33
2018-11-10T09:26:35.129Z,40.33
2018-11-10T09:29:03.631Z,43.90
2018-11-10T09:31:31.787Z,39.23
2018-11-10T09:34:00.036Z,40.23
2018-11-10T09:36:28.612Z,37.57
2018-11-10T09:38:57.714Z,38.63
2018-11-10T09:41:27.182Z,36.33
2018-11-10T09:43:55.498Z,40.47
2018-11-10T09:46:23.938Z,34.47
2018-11-10T09:48:52.891Z,38.93
2018-11-10T09:51:21.959Z,37.20
2018-11-10T09:53:50.175Z,33.87
2018-11-10T09:56:18.490Z,37.77
2018-11-10T09:58:46.803Z,36.60
2018-11-10T10:01:15.140Z,38.83
2018-11-10T10:03:44.169Z,34.33
2018-11-10T10:06:12.614Z,43.73
2018-11-10T10:08:41.289Z,41.27
2018-11-10T10:11:09.810Z,36.97
2018-11-10T10:13:38.132Z,35.90
2018-11-10T10:16:06.975Z,34.53
2018-11-10T10:18:35.138Z,35.37
2018-11-10T10:21:03.632Z,38.13
2018-11-10T10:23:31.807Z,32.40
2018-11-10T10:26:00.212Z,34.13
2018-11-10T10:28:28.652Z,31.50
2018-11-10T10:30:57.229Z,33.10
2018-11-10T10:33:25.512Z,28.53
2018-11-10T10:35:53.803Z,36.63
2018-11-10T10:38:22.037Z,35.00
2018-11-10T10:40:50.454Z,28.70
2018-11-10T10:43:18.783Z,33.80
2018-11-10T10:45:47.264Z,30.93
2018-11-10T10:48:15.535Z,28.43
2018-11-10T10:50:43.796Z,30.60
2018-11-10T10:53:12.733Z,30.90
2018-11-10T10:55:41.263Z,29.73
2018-11-10T10:58:09.529Z,29.63
2018-11-10T11:00:43.364Z,34.17
2018-11-10T11:03:17.457Z,32.73
2018-11-10T11:05:51.622Z,30.43
2018-11-10T11:08:20.026Z,31.40
2018-11-10T11:10:48.407Z,29.60
2018-11-10T11:13:16.991Z,25.30
2018-11-10T11:15:45.647Z,31.73
2018-11-10T11:18:14.317Z,27.10
2018-11-10T11:20:42.776Z,27.23
2018-11-10T11:23:11.143Z,27.00
2018-11-10T11:25:39.963Z,26.90
2018-11-10T11:28:09.592Z,27.80
2018-11-10T11:30:38.651Z,24.07
2018-11-10T11:33:07.388Z,28.00
2018-11-10T11:35:36.100Z,25.13
2018-11-10T11:38:04.927Z,26.63
2018-11-10T11:40:34.282Z,22.10
2018-11-10T11:43:02.741Z,26.20
2018-11-10T11:45:31.012Z,20.53
2018-11-10T11:47:59.368Z,24.97
2018-11-10T11:50:27.660Z,24.43
2018-11-10T11:52:55.863Z,26.60
2018-11-10T11:55:24.275Z,25.00
2018-11-10T11:57:54.161Z,27.40
2018-11-10T12:00:22.413Z,26.10
2018-11-10T12:02:51.862Z,22.30
2018-11-10T12:05:20.333Z,22.47
2018-11-10T12:07:48.827Z,25.47
2018-11-10T12:10:17.261Z,20.10
2018-11-10T12:12:45.646Z,22.33
2018-11-10T12:15:15.712Z,26.10
2018-11-10T12:17:44.536Z,21.27
2018-11-10T12:22:53.401Z,24.90
2018-11-10T12:25:22.552Z,22.33
2018-11-10T12:27:50.920Z,23.10
2018-11-10T12:30:19.266Z,23.97
2018-11-10T12:32:47.547Z,19.97
2018-11-10T12:35:17.031Z,19.20
2018-11-10T12:37:45.438Z,20.10
2018-11-10T12:40:14.001Z,21.47
2018-11-10T12:42:42.609Z,21.20
2018-11-10T12:45:12.061Z,17.60
2018-11-10T12:47:41.116Z,22.80
2018-11-10T12:50:12.049Z,22.63
2018-11-10T12:52:42.032Z,22.27
2018-11-10T12:55:11.609Z,19.43
2018-11-10T12:57:40.936Z,17.13
2018-11-10T13:00:11.198Z,17.67
2018-11-10T13:02:40.231Z,18.37
2018-11-10T13:05:09.971Z,20.23
2018-11-10T13:07:39.679Z,17.73
2018-11-10T13:10:09.033Z,17.13
2018-11-10T13:12:37.847Z,19.80
2018-11-10T13:15:06.855Z,16.50
2018-11-10T13:17:35.258Z,16.97
2018-11-10T13:20:04.642Z,15.90
2018-11-10T13:22:33.006Z,18.93
2018-11-10T13:25:02.207Z,17.80
2018-11-10T13:27:30.554Z,18.47
2018-11-10T13:29:58.829Z,15.27
2018-11-10T13:32:27.233Z,19.90
2018-11-10T13:34:55.533Z,19.00
2018-11-10T13:37:23.906Z,16.63
2018-11-10T13:39:52.325Z,17.33
2018-11-10T13:42:20.706Z,19.50
2018-11-10T13:44:49.666Z,16.40
2018-11-10T13:47:17.922Z,17.23
2018-11-10T13:49:46.842Z,17.80
2018-11-10T13:52:15.387Z,20.13
2018-11-10T13:54:43.701Z,16.40
2018-11-10T13:57:11.914Z,18.10
2018-11-10T13:59:41.054Z,15.27
2018-11-10T14:02:09.449Z,19.77
2018-11-10T14:04:37.719Z,17.20
2018-11-10T14:07:06.167Z,14.43
2018-11-10T14:09:34.469Z,18.60
2018-11-10T14:12:02.910Z,14.50
2018-11-10T14:14:31.300Z,17.43
2018-11-10T14:16:59.980Z,18.10
2018-11-10T14:19:28.593Z,14.30
2018-11-10T14:21:57.039Z,16.73
2018-11-10T14:24:26.509Z,15.00
2018-11-10T14:26:54.951Z,13.13
2018-11-10T14:29:23.420Z,15.40
2018-11-10T14:31:51.610Z,12.53
2018-11-10T14:34:19.951Z,12.90
2018-11-10T14:36:48.450Z,13.13
2018-11-10T14:39:16.865Z,12.70
2018-11-10T14:41:45.230Z,12.10
2018-11-10T14:44:13.972Z,14.63
2018-11-10T14:46:42.585Z,11.53
2018-11-10T14:49:11.223Z,16.97
2018-11-10T14:51:39.613Z,13.30
2018-11-10T14:54:07.965Z,15.53
2018-11-10T14:56:36.244Z,14.20
2018-11-10T14:59:04.548Z,16.20
2018-11-10T15:01:32.813Z,16.47
2018-11-10T15:04:01.229Z,12.10
2018-11-10T15:06:29.590Z,14.03
2018-11-10T15:08:58.151Z,15.40
2018-11-10T15:11:26.930Z,15.00
2018-11-10T15:13:55.497Z,13.67
2018-11-10T15:19:10.213Z,13.20
2018-11-10T15:21:39.086Z,13.97
2018-11-10T15:24:07.516Z,16.40
2018-11-10T15:26:37.039Z,14.00
2018-11-10T15:29:05.834Z,15.57
2018-11-10T15:31:34.155Z,15.70
2018-11-10T15:34:02.791Z,15.67
2018-11-10T15:36:31.353Z,12.40
2018-11-10T15:38:59.833Z,14.67
2018-11-10T15:41:28.412Z,13.50
2018-11-10T15:43:56.672Z,13.90
2018-11-10T15:46:24.963Z,15.40
2018-11-10T15:48:53.532Z,14.47
2018-11-10T15:51:22.093Z,13.77
2018-11-10T15:53:50.414Z,12.90
2018-11-10T15:56:18.795Z,16.57
2018-11-10T15:58:47.726Z,16.93
2018-11-10T16:01:16.229Z,13.73
2018-11-10T16:03:44.440Z,13.67
2018-11-10T16:06:12.823Z,14.07
2018-11-10T16:08:41.181Z,12.10
2018-11-10T16:11:09.314Z,11.93
2018-11-10T16:13:37.919Z,10.83
2018-11-10T16:16:06.174Z,11.07
2018-11-10T16:18:34.427Z,10.13
2018-11-10T16:21:02.816Z,11.33
2018-11-10T16:23:30.954Z,12.13
2018-11-10T16:25:59.169Z,11.73
2018-11-10T16:28:28.480Z,11.10
2018-11-10T16:30:56.820Z,10.03
2018-11-10T16:33:25.176Z,10.60
2018-11-10T16:35:54.021Z,11.70
2018-11-10T16:38:22.302Z,10.30
2018-11-10T16:40:50.651Z,12.20
2018-11-10T16:43:18.908Z,10.30
2018-11-10T16:45:47.381Z,10.90
2018-11-10T16:48:15.786Z,8.90
2018-11-10T16:50:44.231Z,12.40
2018-11-10T16:53:12.698Z,8.73
2018-11-10T16:55:41.019Z,10.10
2018-11-10T16:58:09.198Z,9.73
2018-11-10T17:00:38.177Z,10.80
2018-11-10T17:03:06.400Z,11.70
2018-11-10T17:05:34.960Z,9.60
2018-11-10T17:08:04.169Z,10.53
2018-11-10T17:10:32.606Z,9.90
2018-11-10T17:13:01.262Z,10.10
2018-11-10T17:15:29.803Z,9.30
2018-11-10T17:17:58.615Z,10.47
2018-11-10T17:20:27.140Z,12.30
2018-11-10T17:22:57.993Z,11.10
2018-11-10T17:25:27.003Z,13.30
2018-11-10T17:27:55.238Z,11.30
2018-11-10T17:30:23.592Z,12.37
2018-11-10T17:32:51.798Z,11.43
2018-11-10T17:35:20.191Z,11.03
2018-11-10T17:37:48.628Z,10.50
2018-11-10T17:40:17.406Z,11.33
2018-11-10T17:42:45.873Z,10.77
2018-11-10T17:45:18.283Z,11.83
2018-11-10T17:47:46.746Z,11.40
2018-11-10T18:11:32.667Z,10.77
2018-11-10T18:14:01.331Z,11.90
2018-11-10T18:16:29.876Z,10.70
2018-11-10T18:18:58.426Z,8.80
2018-11-10T18:21:26.826Z,10.63
2018-11-10T18:23:55.482Z,13.23
2018-11-10T18:26:23.835Z,10.30
2018-11-10T18:28:52.138Z,11.03
2018-11-10T18:31:20.551Z,11.93
2018-11-10T18:33:48.915Z,14.43
2018-11-10T18:36:17.617Z,13.73
2018-11-10T18:38:45.972Z,11.80
2018-11-10T18:41:14.375Z,10.47
2018-11-10T18:43:42.817Z,10.40
2018-11-10T18:46:11.186Z,11.57
2018-11-10T18:48:39.871Z,10.90
2018-11-10T18:51:08.191Z,10.97
2018-11-10T18:53:36.545Z,14.90
2018-11-10T18:56:05.022Z,9.87
2018-11-10T18:58:33.416Z,11.93
2018-11-10T19:01:01.857Z,11.27
2018-11-10T19:03:30.124Z,11.30
2018-11-10T19:05:58.594Z,10.50
2018-11-10T19:08:26.969Z,13.33
2018-11-10T19:10:55.421Z,11.10
2018-11-10T19:13:24.871Z,12.93
2018-11-10T19:15:53.312Z,12.07
2018-11-10T19:18:22.684Z,8.90
2018-11-10T19:20:51.062Z,10.73
2018-11-10T19:23:19.469Z,12.20
2018-11-10T19:25:47.713Z,11.40
2018-11-10T19:28:16.105Z,10.97
2018-11-10T19:30:44.469Z,9.77
2018-11-10T19:33:13.421Z,12.43
2018-11-10T19:35:42.096Z,12.27
2018-11-10T19:38:10.787Z,11.20
2018-11-10T19:40:39.303Z,12.63
2018-11-10T19:43:08.030Z,11.33
2018-11-10T19:45:36.786Z,10.87
2018-11-10T19:48:05.700Z,11.13
2018-11-10T19:50:34.420Z,12.53
2018-11-10T19:53:02.983Z,9.50
2018-11-10T19:55:31.264Z,11.50
2018-11-10T19:58:00.053Z,11.57
2018-11-10T20:00:28.528Z,12.40
2018-11-10T20:02:56.938Z,11.40
2018-11-10T20:05:25.306Z,10.37
2018-11-10T20:07:53.701Z,11.60
2018-11-10T20:10:22.161Z,11.27
2018-11-10T20:12:50.590Z,11.03
2018-11-10T20:15:19.423Z,8.63
2018-11-10T20:17:48.235Z,10.87
2018-11-10T20:20:17.628Z,12.53
2018-11-10T20:22:45.977Z,12.40
2018-11-10T20:25:17.563Z,10.00
2018-11-10T20:27:46.270Z,9.70
2018-11-10T20:30:16.201Z,10.37
2018-11-10T20:32:45.460Z,10.70
2018-11-10T20:35:14.253Z,10.00
2018-11-10T20:37:43.413Z,7.00
2018-11-10T20:40:13.437Z,6.87
2018-11-10T20:42:42.023Z,6.80
2018-11-10T20:45:13.286Z,7.50
2018-11-10T20:47:42.116Z,5.47
2018-11-10T20:50:11.108Z,7.00
2018-11-10T20:52:39.424Z,4.70
2018-11-10T20:55:09.301Z,5.50
2018-11-10T20:57:38.036Z,3.63
2018-11-10T21:00:12.587Z,4.50
2018-11-10T21:02:41.854Z,6.37
2018-11-10T21:05:11.356Z,3.60
2018-11-10T21:07:39.991Z,5.00
2018-11-10T21:10:11.861Z,4.20
2018-11-10T21:12:40.797Z,4.53
2018-11-10T21:17:49.657Z,4.70
2018-11-10T21:20:17.963Z,4.67
2018-11-10T21:22:46.213Z,3.40
2018-11-10T21:25:16.242Z,4.13
2018-11-10T21:27:45.241Z,4.20
2018-11-10T21:30:15.074Z,3.07
2018-11-10T21:32:43.803Z,3.07
2018-11-10T21:35:12.215Z,5.27
2018-11-10T21:37:42.234Z,3.97
2018-11-10T21:40:13.887Z,3.60
2018-11-10T21:42:42.390Z,4.07
2018-11-10T21:45:11.899Z,5.00
2018-11-10T21:47:40.509Z,3.63
2018-11-10T21:50:11.660Z,3.57
2018-11-10T21:52:41.882Z,3.20
2018-11-10T21:55:11.738Z,3.40
2018-11-10T21:57:40.380Z,3.50
2018-11-10T22:00:12.036Z,4.00
2018-11-10T22:02:41.781Z,6.80
2018-11-10T22:05:10.564Z,4.90
2018-11-10T22:07:40.978Z,5.60
2018-11-10T22:10:11.873Z,7.93
2018-11-10T22:12:40.489Z,6.50
2018-11-10T22:15:11.695Z,7.47
2018-11-10T22:17:40.589Z,7.33
2018-11-10T22:20:10.711Z,6.67
2018-11-10T22:22:39.115Z,6.90
2018-11-10T22:25:08.558Z,7.63
2018-11-10T22:27:37.767Z,8.83
2018-11-10T22:30:09.305Z,10.23
2018-11-10T22:32:38.489Z,11.90
2018-11-10T22:35:07.886Z,10.70
2018-11-10T22:37:36.848Z,11.17
2018-11-10T22:40:07.260Z,10.47
2018-11-10T22:42:36.401Z,9.77
2018-11-10T22:45:05.245Z,11.43
2018-11-10T22:47:33.785Z,12.50
2018-11-10T22:50:02.002Z,11.33
2018-11-10T22:52:30.291Z,11.50
2018-11-10T22:54:58.493Z,10.63
2018-11-10T22:57:27.114Z,10.40
2018-11-10T22:59:55.329Z,10.60
2018-11-10T23:02:24.078Z,9.80
2018-11-10T23:04:52.332Z,11.30
2018-11-10T23:07:20.525Z,11.00
2018-11-10T23:09:48.670Z,11.77
2018-11-10T23:12:16.910Z,10.30
2018-11-10T23:14:45.210Z,11.70
2018-11-10T23:17:13.928Z,9.43
2018-11-10T23:19:42.273Z,11.10
2018-11-10T23:22:10.660Z,9.60
2018-11-10T23:24:38.784Z,12.87
2018-11-10T23:27:07.309Z,9.67
2018-11-10T23:29:35.796Z,9.23
2018-11-10T23:32:04.600Z,13.27
2018-11-10T23:34:32.847Z,10.30
2018-11-10T23:37:01.451Z,10.03
2018-11-10T23:39:29.807Z,13.23
2018-11-10T23:41:58.017Z,10.70
2018-11-10T23:44:26.804Z,8.00
2018-11-10T23:46:55.009Z,8.40
2018-11-10T23:49:23.370Z,9.43
2018-11-10T23:51:51.901Z,6.40
2018-11-10T23:54:20.490Z,8.27
2018-11-10T23:56:48.710Z,6.10
2018-11-10T23:59:17.550Z,5.50
